createdAt,value
2018-11-02T00:00:28.668Z,12.20
2018-11-02T00:01:28.636Z,11.80
2018-11-02T00:02:28.632Z,11.30
2018-11-02T00:03:28.545Z,11.90
2018-11-02T00:04:28.526Z,12.00
2018-11-02T00:05:28.469Z,12.30
2018-11-02T00:06:28.543Z,11.10
2018-11-02T00:07:28.387Z,11.90
2018-11-02T00:08:28.346Z,11.40
2018-11-02T00:09:28.319Z,11.30
2018-11-02T00:10:28.278Z,11.50
2018-11-02T00:11:28.214Z,10.90
2018-11-02T00:12:28.277Z,11.40
2018-11-02T00:13:28.184Z,11.70
2018-11-02T00:14:28.093Z,11.50
2018-11-02T00:15:28.077Z,10.90
2018-11-02T00:16:28.015Z,11.10
2018-11-02T00:17:27.964Z,11.10
2018-11-02T00:18:27.920Z,11.00
2018-11-02T00:19:27.889Z,11.10
2018-11-02T00:20:27.873Z,11.10
2018-11-02T00:21:27.795Z,11.30
2018-11-02T00:22:27.755Z,10.90
2018-11-02T00:23:27.714Z,11.10
2018-11-02T00:24:27.672Z,10.50
2018-11-02T00:25:27.637Z,10.70
2018-11-02T00:26:27.619Z,10.50
2018-11-02T00:27:27.555Z,10.80
2018-11-02T00:28:27.512Z,11.10
2018-11-02T00:29:27.467Z,11.40
2018-11-02T00:30:27.443Z,11.20
2018-11-02T00:31:27.389Z,11.00
2018-11-02T00:32:27.339Z,11.00
2018-11-02T00:33:27.306Z,10.90
2018-11-02T00:34:27.263Z,10.50
2018-11-02T00:35:27.244Z,10.90
2018-11-02T00:36:27.171Z,10.10
2018-11-02T00:37:27.136Z,10.70
2018-11-02T00:38:27.098Z,10.20
2018-11-02T00:39:27.057Z,10.40
2018-11-02T00:40:27.012Z,10.60
2018-11-02T00:41:26.987Z,11.00
2018-11-02T00:42:26.924Z,10.50
2018-11-02T00:43:26.884Z,10.60
2018-11-02T00:44:26.840Z,10.30
2018-11-02T00:45:26.806Z,10.30
2018-11-02T00:46:26.788Z,10.30
2018-11-02T00:47:26.723Z,11.10
2018-11-02T00:48:26.681Z,11.00
2018-11-02T00:49:26.629Z,11.00
2018-11-02T00:50:26.620Z,11.00
2018-11-02T00:51:26.584Z,11.50
2018-11-02T00:52:26.514Z,11.80
2018-11-02T00:53:26.466Z,12.30
2018-11-02T00:54:26.421Z,12.00
2018-11-02T00:55:26.381Z,12.00
2018-11-02T00:56:26.341Z,12.40
2018-11-02T00:57:26.327Z,11.40
2018-11-02T00:58:26.265Z,12.40
2018-11-02T00:59:26.225Z,12.30
2018-11-02T01:00:26.179Z,11.70
2018-11-02T01:01:26.133Z,12.20
2018-11-02T01:02:26.114Z,12.00
2018-11-02T01:03:26.047Z,11.50
2018-11-02T01:04:26.014Z,11.80
2018-11-02T01:05:25.997Z,11.80
2018-11-02T01:06:25.925Z,11.40
2018-11-02T01:07:25.880Z,11.60
2018-11-02T01:08:25.859Z,11.60
2018-11-02T01:09:25.802Z,11.20
2018-11-02T01:10:25.760Z,11.50
2018-11-02T01:11:25.751Z,11.60
2018-11-02T01:12:25.678Z,11.60
2018-11-02T01:13:25.705Z,11.70
2018-11-02T01:14:25.603Z,12.10
2018-11-02T01:15:25.543Z,11.30
2018-11-02T01:16:25.567Z,11.20
2018-11-02T01:17:25.466Z,11.70
2018-11-02T01:18:25.425Z,11.70
2018-11-02T01:19:25.409Z,12.20
2018-11-02T01:20:25.358Z,11.60
2018-11-02T01:21:25.291Z,12.20
2018-11-02T01:22:25.255Z,11.60
2018-11-02T01:23:25.236Z,12.00
2018-11-02T01:24:25.172Z,11.90
2018-11-02T01:25:25.151Z,11.20
2018-11-02T01:26:25.084Z,11.80
2018-11-02T01:27:25.044Z,10.80
2018-11-02T01:28:25.018Z,10.70
2018-11-02T01:29:24.971Z,10.00
2018-11-02T01:30:24.923Z,10.10
2018-11-02T01:31:24.903Z,10.10
2018-11-02T01:32:24.837Z,9.70
2018-11-02T01:33:24.807Z,8.80
2018-11-02T01:34:24.770Z,8.00
2018-11-02T01:35:24.706Z,7.10
2018-11-02T01:36:24.686Z,6.40
2018-11-02T01:37:24.630Z,4.50
2018-11-02T01:38:24.587Z,5.20
2018-11-02T01:39:24.557Z,4.50
2018-11-02T01:40:24.495Z,3.90
2018-11-02T01:41:24.460Z,4.00
2018-11-02T01:42:24.418Z,3.80
2018-11-02T01:43:24.377Z,3.70
2018-11-02T01:44:24.376Z,3.20
2018-11-02T01:45:24.283Z,3.00
2018-11-02T01:46:24.249Z,2.80
2018-11-02T01:47:24.204Z,2.80
2018-11-02T01:48:24.163Z,2.80
2018-11-02T01:49:24.147Z,2.80
2018-11-02T01:50:24.107Z,2.60
2018-11-02T01:51:24.066Z,2.40
2018-11-02T01:52:23.998Z,2.50
2018-11-02T01:53:23.951Z,2.50
2018-11-02T01:54:23.907Z,2.40
2018-11-02T01:55:23.875Z,2.50
2018-11-02T01:56:23.856Z,2.50
2018-11-02T01:57:23.782Z,2.40
2018-11-02T01:58:23.741Z,2.40
2018-11-02T01:59:23.699Z,2.30
2018-11-02T02:00:23.660Z,2.30
2018-11-02T02:01:23.662Z,2.40
2018-11-02T02:02:23.580Z,2.20
2018-11-02T02:03:23.541Z,2.20
2018-11-02T02:04:23.499Z,2.30
2018-11-02T02:05:23.452Z,2.20
2018-11-02T02:06:23.436Z,2.20
2018-11-02T02:07:23.366Z,2.40
2018-11-02T02:08:23.323Z,2.20
2018-11-02T02:09:23.290Z,2.10
2018-11-02T02:10:23.248Z,1.90
2018-11-02T02:11:23.202Z,2.20
2018-11-02T02:12:23.180Z,2.10
2018-11-02T02:13:23.249Z,2.00
2018-11-02T02:14:23.080Z,1.90
2018-11-02T02:15:23.039Z,2.10
2018-11-02T02:16:23.020Z,2.00
2018-11-02T02:17:22.971Z,2.20
2018-11-02T02:18:22.909Z,2.20
2018-11-02T02:19:22.868Z,2.00
2018-11-02T02:20:22.823Z,2.20
2018-11-02T02:21:22.822Z,2.10
2018-11-02T02:22:22.746Z,1.80
2018-11-02T02:23:22.738Z,2.10
2018-11-02T02:24:22.668Z,2.10
2018-11-02T02:25:22.615Z,2.30
2018-11-02T02:26:22.574Z,2.20
2018-11-02T02:27:22.568Z,2.10
2018-11-02T02:28:22.497Z,1.90
2018-11-02T02:29:22.450Z,2.20
2018-11-02T02:30:22.412Z,2.30
2018-11-02T02:31:22.365Z,2.10
2018-11-02T02:32:22.324Z,2.00
2018-11-02T02:33:22.311Z,2.30
2018-11-02T02:34:22.250Z,2.40
2018-11-02T02:35:22.206Z,2.30
2018-11-02T02:36:22.165Z,2.30
2018-11-02T02:37:22.140Z,2.50
2018-11-02T02:38:22.096Z,2.80
2018-11-02T02:39:22.047Z,2.60
2018-11-02T02:40:21.991Z,2.70
2018-11-02T02:41:21.956Z,2.60
2018-11-02T02:42:21.917Z,2.70
2018-11-02T02:43:21.889Z,2.60
2018-11-02T02:44:22.690Z,3.00
2018-11-02T02:45:21.790Z,3.10
2018-11-02T02:46:21.754Z,3.00
2018-11-02T02:47:21.707Z,3.20
2018-11-02T02:48:21.690Z,3.10
2018-11-02T02:49:21.617Z,3.40
2018-11-02T02:50:21.595Z,3.30
2018-11-02T02:51:21.536Z,3.00
2018-11-02T02:52:21.492Z,3.30
2018-11-02T02:53:21.456Z,3.20
2018-11-02T02:54:21.459Z,3.50
2018-11-02T02:55:21.374Z,3.30
2018-11-02T02:56:21.453Z,3.20
2018-11-02T02:57:21.283Z,4.00
2018-11-02T02:58:21.267Z,3.50
2018-11-02T02:59:21.209Z,4.10
2018-11-02T03:00:21.190Z,4.10
2018-11-02T03:01:21.119Z,3.90
2018-11-02T03:02:21.076Z,4.20
2018-11-02T03:03:21.034Z,3.80
2018-11-02T03:04:20.993Z,4.20
2018-11-02T03:05:20.982Z,4.30
2018-11-02T03:06:20.918Z,4.40
2018-11-02T03:07:20.877Z,4.20
2018-11-02T03:08:20.835Z,4.90
2018-11-02T03:09:20.812Z,4.30
2018-11-02T03:10:20.768Z,4.50
2018-11-02T03:11:20.704Z,5.00
2018-11-02T03:12:20.661Z,4.70
2018-11-02T03:13:20.626Z,4.60
2018-11-02T03:14:20.621Z,4.70
2018-11-02T03:15:20.536Z,4.50
2018-11-02T03:16:20.495Z,4.80
2018-11-02T03:17:20.484Z,4.50
2018-11-02T03:18:20.424Z,4.30
2018-11-02T03:19:20.377Z,4.50
2018-11-02T03:20:20.357Z,5.00
2018-11-02T03:21:20.285Z,4.60
2018-11-02T03:22:20.279Z,4.60
2018-11-02T03:23:20.202Z,5.10
2018-11-02T03:24:20.182Z,5.20
2018-11-02T03:25:20.128Z,5.00
2018-11-02T03:26:20.088Z,5.10
2018-11-02T03:27:20.045Z,5.10
2018-11-02T03:28:20.000Z,5.20
2018-11-02T03:29:19.975Z,5.40
2018-11-02T03:30:20.006Z,5.30
2018-11-02T03:31:19.883Z,5.50
2018-11-02T03:32:19.833Z,5.70
2018-11-02T03:33:19.786Z,5.70
2018-11-02T03:34:19.780Z,6.00
2018-11-02T03:35:19.705Z,5.50
2018-11-02T03:36:19.684Z,5.70
2018-11-02T03:37:19.640Z,5.40
2018-11-02T03:38:19.585Z,5.90
2018-11-02T03:39:19.567Z,6.00
2018-11-02T03:40:19.502Z,5.90
2018-11-02T03:41:19.452Z,6.30
2018-11-02T03:42:19.411Z,6.60
2018-11-02T03:43:19.375Z,6.30
2018-11-02T03:44:19.351Z,6.30
2018-11-02T03:45:19.312Z,6.50
2018-11-02T03:46:19.274Z,6.40
2018-11-02T03:47:19.203Z,6.50
2018-11-02T03:48:19.159Z,6.70
2018-11-02T03:49:19.151Z,6.30
2018-11-02T03:50:19.086Z,6.30
2018-11-02T03:51:19.043Z,6.60
2018-11-02T03:52:19.027Z,6.60
2018-11-02T03:53:18.951Z,6.90
2018-11-02T03:54:18.912Z,6.80
2018-11-02T03:55:18.924Z,7.00
2018-11-02T03:56:19.269Z,7.40
2018-11-02T03:57:18.815Z,6.90
2018-11-02T03:58:18.772Z,7.10
2018-11-02T03:59:18.711Z,6.90
2018-11-02T04:00:18.670Z,6.90
2018-11-02T04:01:18.622Z,7.10
2018-11-02T04:02:18.579Z,7.40
2018-11-02T04:03:18.567Z,7.40
2018-11-02T04:04:18.500Z,7.30
2018-11-02T04:05:18.473Z,7.60
2018-11-02T04:06:18.415Z,7.60
2018-11-02T04:07:18.367Z,7.90
2018-11-02T04:08:18.350Z,7.40
2018-11-02T04:09:18.330Z,7.70
2018-11-02T04:10:18.248Z,8.30
2018-11-02T04:11:18.212Z,8.30
2018-11-02T04:12:18.166Z,8.20
2018-11-02T04:13:18.140Z,8.30
2018-11-02T04:14:18.077Z,8.20
2018-11-02T04:15:18.036Z,8.50
2018-11-02T04:16:18.001Z,8.40
2018-11-02T04:17:17.960Z,8.30
2018-11-02T04:18:17.951Z,8.60
2018-11-02T04:19:17.869Z,8.40
2018-11-02T04:20:17.831Z,8.30
2018-11-02T04:21:17.793Z,8.80
2018-11-02T04:22:17.753Z,8.70
2018-11-02T04:23:17.727Z,8.50
2018-11-02T04:24:17.733Z,8.70
2018-11-02T04:25:17.636Z,8.50
2018-11-02T04:26:17.581Z,8.20
2018-11-02T04:27:17.536Z,8.30
2018-11-02T04:28:17.517Z,8.10
2018-11-02T04:29:17.457Z,8.90
2018-11-02T04:30:17.440Z,8.60
2018-11-02T04:31:17.375Z,8.40
2018-11-02T04:32:17.334Z,8.30
2018-11-02T04:33:17.287Z,8.50
2018-11-02T04:34:17.266Z,8.50
2018-11-02T04:35:17.211Z,9.30
2018-11-02T04:36:17.191Z,8.80
2018-11-02T04:37:17.116Z,8.80
2018-11-02T04:38:17.076Z,9.00
2018-11-02T04:39:17.056Z,9.00
2018-11-02T04:40:16.993Z,8.90
2018-11-02T04:41:16.959Z,9.20
2018-11-02T04:42:16.916Z,8.70
2018-11-02T04:43:16.878Z,8.80
2018-11-02T04:44:16.854Z,8.70
2018-11-02T04:45:16.785Z,9.10
2018-11-02T04:46:16.743Z,9.30
2018-11-02T04:47:16.723Z,9.30
2018-11-02T04:48:16.658Z,9.60
2018-11-02T04:49:16.624Z,9.60
2018-11-02T04:50:16.605Z,9.60
2018-11-02T04:51:16.639Z,9.70
2018-11-02T04:52:16.492Z,9.90
2018-11-02T04:53:16.481Z,9.90
2018-11-02T04:54:16.416Z,10.20
2018-11-02T04:55:16.372Z,9.90
2018-11-02T04:56:16.331Z,9.40
2018-11-02T04:57:16.282Z,9.50
2018-11-02T04:58:16.265Z,9.80
2018-11-02T04:59:16.200Z,10.40
2018-11-02T05:00:16.157Z,9.90
2018-11-02T05:01:16.123Z,10.40
2018-11-02T05:02:16.083Z,10.30
2018-11-02T05:03:16.062Z,10.20
2018-11-02T05:04:15.995Z,10.10
2018-11-02T05:05:15.970Z,10.40
2018-11-02T05:06:16.633Z,10.40
2018-11-02T05:07:15.871Z,10.90
2018-11-02T05:08:15.851Z,11.10
2018-11-02T05:09:15.782Z,11.00
2018-11-02T05:10:15.737Z,11.10
2018-11-02T05:11:15.748Z,10.60
2018-11-02T05:12:15.651Z,10.80
2018-11-02T05:13:15.618Z,10.40
2018-11-02T05:14:15.575Z,10.50
2018-11-02T05:15:15.535Z,11.00
2018-11-02T05:16:15.510Z,11.10
2018-11-02T05:17:15.467Z,11.10
2018-11-02T05:18:15.399Z,10.90
2018-11-02T05:19:15.360Z,11.50
2018-11-02T05:20:15.321Z,11.30
2018-11-02T05:21:15.357Z,11.20
2018-11-02T05:22:15.263Z,10.70
2018-11-02T05:23:15.192Z,11.00
2018-11-02T05:24:15.146Z,11.50
2018-11-02T05:25:15.113Z,11.20
2018-11-02T05:26:15.086Z,11.10
2018-11-02T05:27:15.051Z,11.70
2018-11-02T05:28:14.986Z,11.20
2018-11-02T05:29:14.939Z,11.50
2018-11-02T05:30:14.896Z,11.70
2018-11-02T05:31:14.854Z,12.10
2018-11-02T05:32:14.830Z,11.80
2018-11-02T05:33:14.777Z,11.50
2018-11-02T05:34:14.732Z,11.60
2018-11-02T05:35:14.694Z,11.70
2018-11-02T05:36:14.650Z,11.80
2018-11-02T05:37:14.623Z,11.70
2018-11-02T05:38:14.558Z,11.50
2018-11-02T05:39:14.578Z,11.60
2018-11-02T05:40:14.484Z,11.30
2018-11-02T05:41:14.430Z,11.50
2018-11-02T05:42:14.389Z,11.70
2018-11-02T05:43:14.351Z,11.30
2018-11-02T05:44:14.304Z,11.50
2018-11-02T05:45:14.296Z,11.30
2018-11-02T05:46:14.224Z,11.30
2018-11-02T05:47:14.224Z,11.40
2018-11-02T05:48:14.142Z,11.10
2018-11-02T05:49:14.104Z,11.30
2018-11-02T05:50:14.078Z,11.40
2018-11-02T05:51:14.011Z,11.70
2018-11-02T05:52:13.993Z,11.60
2018-11-02T05:53:13.931Z,11.50
2018-11-02T05:54:13.954Z,11.10
2018-11-02T05:55:13.842Z,11.40
2018-11-02T05:56:13.801Z,11.40
2018-11-02T05:57:13.767Z,11.50
2018-11-02T05:58:13.745Z,11.70
2018-11-02T05:59:13.680Z,11.40
2018-11-02T06:00:13.638Z,11.40
2018-11-02T06:01:13.589Z,11.60
2018-11-02T06:02:13.547Z,10.40
2018-11-02T06:03:13.533Z,11.30
2018-11-02T06:04:13.463Z,11.60
2018-11-02T06:05:13.429Z,10.60
2018-11-02T06:06:13.495Z,11.00
2018-11-02T06:07:13.343Z,10.50
2018-11-02T06:08:13.303Z,10.50
2018-11-02T06:09:13.279Z,10.70
2018-11-02T06:10:13.212Z,11.00
2018-11-02T06:11:13.177Z,11.10
2018-11-02T06:12:13.133Z,10.90
2018-11-02T06:13:13.084Z,11.10
2018-11-02T06:14:13.044Z,11.20
2018-11-02T06:15:13.032Z,11.20
2018-11-02T06:16:12.960Z,11.00
2018-11-02T06:17:12.925Z,11.00
2018-11-02T06:18:12.884Z,11.10
2018-11-02T06:19:12.865Z,10.70
2018-11-02T06:20:12.803Z,11.40
2018-11-02T06:21:12.753Z,11.00
2018-11-02T06:22:12.709Z,10.90
2018-11-02T06:23:12.667Z,11.50
2018-11-02T06:24:12.676Z,11.10
2018-11-02T06:25:12.589Z,11.70
2018-11-02T06:26:12.550Z,11.90
2018-11-02T06:27:12.508Z,11.20
2018-11-02T06:28:12.481Z,10.90
2018-11-02T06:29:12.445Z,11.40
2018-11-02T06:30:12.380Z,11.50
2018-11-02T06:31:12.338Z,11.60
2018-11-02T06:32:12.299Z,11.40
2018-11-02T06:33:12.247Z,11.50
2018-11-02T06:34:12.231Z,11.00
2018-11-02T06:35:12.163Z,11.80
2018-11-02T06:36:12.131Z,11.40
2018-11-02T06:37:12.111Z,12.10
2018-11-02T06:38:12.044Z,12.10
2018-11-02T06:39:12.002Z,11.90
2018-11-02T06:40:11.983Z,12.00
2018-11-02T06:41:11.909Z,12.00
2018-11-02T06:42:11.870Z,11.30
2018-11-02T06:43:11.838Z,11.40
2018-11-02T06:44:11.790Z,11.50
2018-11-02T06:45:11.772Z,10.90
2018-11-02T06:46:11.702Z,10.90
2018-11-02T06:47:11.662Z,10.70
2018-11-02T06:48:11.618Z,10.70
2018-11-02T06:49:11.584Z,10.80
2018-11-02T06:50:11.565Z,10.40
2018-11-02T06:51:11.500Z,10.80
2018-11-02T06:52:11.456Z,10.90
2018-11-02T06:53:11.433Z,10.40
2018-11-02T06:54:11.367Z,10.70
2018-11-02T06:55:11.344Z,10.90
2018-11-02T06:56:11.284Z,10.40
2018-11-02T06:57:11.783Z,10.90
2018-11-02T06:58:11.204Z,11.60
2018-11-02T06:59:11.198Z,11.00
2018-11-02T07:00:11.270Z,10.90
2018-11-02T07:01:11.103Z,11.00
2018-11-02T07:02:11.038Z,10.50
2018-11-02T07:03:11.031Z,11.50
2018-11-02T07:04:10.949Z,11.30
2018-11-02T07:05:10.910Z,11.60
2018-11-02T07:06:10.864Z,11.30
2018-11-02T07:07:10.866Z,11.60
2018-11-02T07:08:10.893Z,11.60
2018-11-02T07:09:10.766Z,11.60
2018-11-02T07:10:10.701Z,11.80
2018-11-02T07:11:10.659Z,11.70
2018-11-02T07:12:10.639Z,11.80
2018-11-02T07:13:10.590Z,11.60
2018-11-02T07:14:10.528Z,11.80
2018-11-02T07:15:10.493Z,12.00
2018-11-02T07:16:10.449Z,11.70
2018-11-02T07:17:10.401Z,11.90
2018-11-02T07:18:10.382Z,11.30
2018-11-02T07:19:10.317Z,11.70
2018-11-02T07:20:10.274Z,11.90
2018-11-02T07:21:10.244Z,12.30
2018-11-02T07:22:10.222Z,12.30
2018-11-02T07:23:10.156Z,12.00
2018-11-02T07:24:10.114Z,11.60
2018-11-02T07:25:10.086Z,11.80
2018-11-02T07:26:10.029Z,11.70
2018-11-02T07:27:09.982Z,12.70
2018-11-02T07:28:09.965Z,12.30
2018-11-02T07:29:09.907Z,12.30
2018-11-02T07:30:09.866Z,12.20
2018-11-02T07:31:09.814Z,12.40
2018-11-02T07:32:09.773Z,11.80
2018-11-02T07:33:09.762Z,12.30
2018-11-02T07:34:09.747Z,12.10
2018-11-02T07:35:09.682Z,12.30
2018-11-02T07:36:09.617Z,12.50
2018-11-02T07:37:09.568Z,12.50
2018-11-02T07:38:09.526Z,12.10
2018-11-02T07:39:09.481Z,12.60
2018-11-02T07:40:09.439Z,12.20
2018-11-02T07:41:09.430Z,12.80
2018-11-02T07:42:09.364Z,12.30
2018-11-02T07:43:09.323Z,12.40
2018-11-02T07:44:09.303Z,12.20
2018-11-02T07:45:09.233Z,11.70
2018-11-02T07:46:09.191Z,12.50
2018-11-02T07:47:09.159Z,12.80
2018-11-02T07:48:09.114Z,12.50
2018-11-02T07:49:09.089Z,12.10
2018-11-02T07:50:09.023Z,11.90
2018-11-02T07:51:08.984Z,12.10
2018-11-02T07:52:08.954Z,12.80
2018-11-02T07:53:08.907Z,12.10
2018-11-02T07:54:08.887Z,12.00
2018-11-02T07:55:08.834Z,12.20
2018-11-02T07:56:08.785Z,12.20
2018-11-02T07:57:08.754Z,11.80
2018-11-02T07:58:08.691Z,11.00
2018-11-02T07:59:08.709Z,11.50
2018-11-02T08:00:08.611Z,11.20
2018-11-02T08:01:08.575Z,11.40
2018-11-02T08:02:08.557Z,11.80
2018-11-02T08:03:08.485Z,11.20
2018-11-02T08:04:08.445Z,11.80
2018-11-02T08:05:08.434Z,11.40
2018-11-02T08:06:08.371Z,11.30
2018-11-02T08:07:08.328Z,11.60
2018-11-02T08:08:08.329Z,11.50
2018-11-02T08:09:08.239Z,11.20
2018-11-02T08:10:08.197Z,12.00
2018-11-02T08:11:08.156Z,11.50
2018-11-02T08:12:08.116Z,12.00
2018-11-02T08:13:08.107Z,12.10
2018-11-02T08:14:08.041Z,11.80
2018-11-02T08:15:08.000Z,12.10
2018-11-02T08:16:07.958Z,12.20
2018-11-02T08:17:07.914Z,12.30
2018-11-02T08:18:07.870Z,11.80
2018-11-02T08:19:07.993Z,12.00
2018-11-02T08:20:07.794Z,12.60
2018-11-02T08:21:07.745Z,12.50
2018-11-02T08:22:07.706Z,11.90
2018-11-02T08:23:07.663Z,12.30
2018-11-02T08:24:07.647Z,12.00
2018-11-02T08:25:07.588Z,12.20
2018-11-02T08:26:07.573Z,12.20
2018-11-02T08:27:07.508Z,12.60
2018-11-02T08:28:07.465Z,12.00
2018-11-02T08:29:07.417Z,12.40
2018-11-02T08:30:07.375Z,12.40
2018-11-02T08:31:07.356Z,12.30
2018-11-02T08:32:07.363Z,12.30
2018-11-02T08:33:07.284Z,12.20
2018-11-02T08:34:07.217Z,11.50
2018-11-02T08:35:07.171Z,12.80
2018-11-02T08:36:07.127Z,12.30
2018-11-02T08:37:07.093Z,12.90
2018-11-02T08:38:07.053Z,12.60
2018-11-02T08:39:07.035Z,12.20
2018-11-02T08:40:06.972Z,12.20
2018-11-02T08:41:06.923Z,12.90
2018-11-02T08:42:06.881Z,12.70
2018-11-02T08:43:06.849Z,12.60
2018-11-02T08:44:06.821Z,12.50
2018-11-02T08:45:06.765Z,12.80
2018-11-02T08:46:06.727Z,12.70
2018-11-02T08:47:06.711Z,12.40
2018-11-02T08:48:06.642Z,12.80
2018-11-02T08:49:06.594Z,13.10
2018-11-02T08:50:06.560Z,12.40
2018-11-02T08:51:06.518Z,12.60
2018-11-02T08:52:06.526Z,13.10
2018-11-02T08:53:06.451Z,12.80
2018-11-02T08:54:06.416Z,12.60
2018-11-02T08:55:06.350Z,12.90
2018-11-02T08:56:06.307Z,12.80
2018-11-02T08:57:06.282Z,12.90
2018-11-02T08:58:06.421Z,12.70
2018-11-02T08:59:06.233Z,12.70
2018-11-02T09:00:06.177Z,12.50
2018-11-02T09:01:06.110Z,11.90
2018-11-02T09:02:06.070Z,11.80
2018-11-02T09:03:06.032Z,12.30
2018-11-02T09:04:05.987Z,10.70
2018-11-02T09:05:06.015Z,11.40
2018-11-02T09:06:05.900Z,10.50
2018-11-02T09:07:05.869Z,10.10
2018-11-02T09:08:05.849Z,10.10
2018-11-02T09:09:05.805Z,10.30
2018-11-02T09:10:05.743Z,10.50
2018-11-02T09:11:05.708Z,10.30
2018-11-02T09:12:05.807Z,10.80
2018-11-02T09:13:05.636Z,10.10
2018-11-02T09:14:05.599Z,10.00
2018-11-02T09:15:05.566Z,10.90
2018-11-02T09:16:05.522Z,9.70
2018-11-02T09:17:05.501Z,9.80
2018-11-02T09:18:05.443Z,10.10
2018-11-02T09:19:05.446Z,9.50
2018-11-02T09:20:05.372Z,9.40
2018-11-02T09:21:05.368Z,9.90
2018-11-02T09:22:05.302Z,10.00
2018-11-02T09:23:05.258Z,10.20
2018-11-02T09:24:05.220Z,10.50
2018-11-02T09:25:05.193Z,10.00
2018-11-02T09:26:05.156Z,10.00
2018-11-02T09:27:05.148Z,10.00
2018-11-02T09:28:05.225Z,9.70
2018-11-02T09:29:05.058Z,9.70
2018-11-02T09:30:05.004Z,9.30
2018-11-02T09:31:05.032Z,9.40
2018-11-02T09:32:04.934Z,9.40
2018-11-02T09:33:04.923Z,9.60
2018-11-02T09:34:04.866Z,9.30
2018-11-02T09:35:04.853Z,9.30
2018-11-02T09:36:04.809Z,9.40
2018-11-02T09:37:04.775Z,8.60
2018-11-02T09:38:04.717Z,8.90
2018-11-02T09:39:04.690Z,9.20
2018-11-02T09:40:04.739Z,9.00
2018-11-02T09:41:04.634Z,9.10
2018-11-02T09:42:04.574Z,8.80
2018-11-02T09:43:04.540Z,8.70
2018-11-02T09:44:04.504Z,8.10
2018-11-02T09:45:04.477Z,8.40
2018-11-02T09:46:04.462Z,8.50
2018-11-02T09:47:04.407Z,8.90
2018-11-02T09:48:04.376Z,8.50
2018-11-02T09:49:04.330Z,8.60
2018-11-02T09:50:04.293Z,8.50
2018-11-02T09:51:04.281Z,8.40
2018-11-02T09:52:04.269Z,9.10
2018-11-02T09:53:04.202Z,8.20
2018-11-02T09:54:04.164Z,8.30
2018-11-02T09:55:04.121Z,8.70
2018-11-02T09:56:04.114Z,8.40
2018-11-02T09:57:04.062Z,8.50
2018-11-02T09:58:04.027Z,8.20
2018-11-02T09:59:03.992Z,8.00
2018-11-02T10:00:04.014Z,8.10
2018-11-02T10:01:03.916Z,8.10
2018-11-02T10:02:03.946Z,8.20
2018-11-02T10:03:03.847Z,8.60
2018-11-02T10:04:03.808Z,9.10
2018-11-02T10:05:03.783Z,8.90
2018-11-02T10:06:03.749Z,9.10
2018-11-02T10:07:03.735Z,9.80
2018-11-02T10:08:03.675Z,8.90
2018-11-02T10:09:03.694Z,8.90
2018-11-02T10:10:03.600Z,9.10
2018-11-02T10:11:03.594Z,8.60
2018-11-02T10:12:03.561Z,8.70
2018-11-02T10:13:03.489Z,9.00
2018-11-02T10:14:03.454Z,8.50
2018-11-02T10:15:03.418Z,9.40
2018-11-02T10:16:03.380Z,8.50
2018-11-02T10:17:03.371Z,8.30
2018-11-02T10:18:03.314Z,8.10
2018-11-02T10:19:03.275Z,7.90
2018-11-02T10:20:03.264Z,8.00
2018-11-02T10:21:03.195Z,7.70
2018-11-02T10:22:03.162Z,7.60
2018-11-02T10:23:03.143Z,7.30
2018-11-02T10:24:03.193Z,7.60
2018-11-02T10:25:03.061Z,7.80
2018-11-02T10:26:03.023Z,7.60
2018-11-02T10:27:03.001Z,7.10
2018-11-02T10:28:03.007Z,7.50
2018-11-02T10:29:02.916Z,7.20
2018-11-02T10:30:02.878Z,7.90
2018-11-02T10:31:02.843Z,6.90
2018-11-02T10:32:02.806Z,7.10
2018-11-02T10:33:02.762Z,7.00
2018-11-02T10:34:02.754Z,6.90
2018-11-02T10:35:02.717Z,7.30
2018-11-02T10:36:02.715Z,7.20
2018-11-02T10:37:02.632Z,6.60
2018-11-02T10:38:02.599Z,6.10
2018-11-02T10:39:02.585Z,5.50
2018-11-02T10:40:02.529Z,6.30
2018-11-02T10:41:02.488Z,5.80
2018-11-02T10:42:02.454Z,7.00
2018-11-02T10:43:02.427Z,6.40
2018-11-02T10:44:02.438Z,6.70
2018-11-02T10:45:02.424Z,5.90
2018-11-02T10:46:02.317Z,5.50
2018-11-02T10:47:02.282Z,5.80
2018-11-02T10:48:02.252Z,5.40
2018-11-02T10:49:02.245Z,5.70
2018-11-02T10:50:02.213Z,5.20
2018-11-02T10:51:02.833Z,5.10
2018-11-02T10:52:02.119Z,4.80
2018-11-02T10:53:02.078Z,4.70
2018-11-02T10:54:02.066Z,4.30
2018-11-02T10:55:02.032Z,4.20
2018-11-02T10:56:01.975Z,4.40
2018-11-02T10:57:01.947Z,4.10
2018-11-02T10:58:01.912Z,4.30
2018-11-02T10:59:01.871Z,4.30
2018-11-02T11:00:01.857Z,3.80
2018-11-02T11:01:01.919Z,3.70
2018-11-02T11:02:01.770Z,3.00
2018-11-02T11:03:01.737Z,4.20
2018-11-02T11:04:01.695Z,3.60
2018-11-02T11:05:01.679Z,3.80
2018-11-02T11:06:01.620Z,3.60
2018-11-02T11:07:01.583Z,3.80
2018-11-02T11:08:01.546Z,4.00
2018-11-02T11:09:01.517Z,3.60
2018-11-02T11:10:01.505Z,3.60
2018-11-02T11:11:01.447Z,3.70
2018-11-02T11:12:01.522Z,4.10
2018-11-02T11:13:01.687Z,3.90
2018-11-02T11:14:01.329Z,3.70
2018-11-02T11:15:01.323Z,3.90
2018-11-02T11:16:01.262Z,3.80
2018-11-02T11:17:01.221Z,4.10
2018-11-02T11:18:01.204Z,3.90
2018-11-02T11:19:01.148Z,3.90
2018-11-02T11:20:01.130Z,3.60
2018-11-02T11:21:01.091Z,4.10
2018-11-02T11:22:01.044Z,3.90
2018-11-02T11:23:01.005Z,3.90
2018-11-02T11:24:00.989Z,3.70
2018-11-02T11:25:00.924Z,4.10
2018-11-02T11:26:00.885Z,3.60
2018-11-02T11:27:00.875Z,3.90
2018-11-02T11:28:00.808Z,3.70
2018-11-02T11:29:00.782Z,4.00
2018-11-02T11:30:00.744Z,4.30
2018-11-02T11:31:00.696Z,3.80
2018-11-02T11:32:00.683Z,3.80
2018-11-02T11:33:00.631Z,4.00
2018-11-02T11:34:00.618Z,3.90
2018-11-02T11:35:00.601Z,3.40
2018-11-02T11:36:00.517Z,3.50
2018-11-02T11:37:00.472Z,3.70
2018-11-02T11:38:00.436Z,4.00
2018-11-02T11:39:00.423Z,3.70
2018-11-02T11:40:00.360Z,3.50
2018-11-02T11:41:00.330Z,4.40
2018-11-02T11:42:00.317Z,4.20
2018-11-02T11:43:00.257Z,4.20
2018-11-02T11:44:00.248Z,4.20
2018-11-02T11:45:00.176Z,4.50
2018-11-02T11:46:00.139Z,4.50
2018-11-02T11:47:00.108Z,4.10
2018-11-02T11:48:00.071Z,3.90
2018-11-02T11:49:00.231Z,4.00
2018-11-02T11:50:00.017Z,4.00
2018-11-02T11:50:59.955Z,4.20
2018-11-02T11:51:59.915Z,4.30
2018-11-02T11:52:59.884Z,3.90
2018-11-02T11:54:08.923Z,3.70
2018-11-02T11:54:59.809Z,3.50
2018-11-02T11:55:59.804Z,3.70
2018-11-02T11:56:59.747Z,3.50
2018-11-02T11:57:59.699Z,3.40
2018-11-02T11:58:59.681Z,3.30
2018-11-02T11:59:59.630Z,3.40
2018-11-02T12:00:59.584Z,3.50
2018-11-02T12:01:59.591Z,3.40
2018-11-02T12:02:59.518Z,3.60
2018-11-02T12:03:59.488Z,3.70
2018-11-02T12:04:59.520Z,3.60
2018-11-02T12:05:59.450Z,3.80
2018-11-02T12:06:59.385Z,3.60
2018-11-02T12:07:59.353Z,3.60
2018-11-02T12:08:59.298Z,4.00
2018-11-02T12:09:59.253Z,4.00
2018-11-02T12:10:59.226Z,3.80
2018-11-02T12:11:59.226Z,4.10
2018-11-02T12:12:59.146Z,3.90
2018-11-02T12:13:59.132Z,3.70
2018-11-02T12:14:59.068Z,3.80
2018-11-02T12:15:59.112Z,3.60
2018-11-02T12:16:58.992Z,3.40
2018-11-02T12:17:58.995Z,3.70
2018-11-02T12:18:58.923Z,3.80
2018-11-02T12:19:58.893Z,3.70
2018-11-02T12:20:58.847Z,3.40
2018-11-02T12:21:58.898Z,3.90
2018-11-02T12:22:58.805Z,3.90
2018-11-02T12:23:58.740Z,4.00
2018-11-02T12:24:58.710Z,4.00
2018-11-02T12:25:58.662Z,3.70
2018-11-02T12:26:58.619Z,4.10
2018-11-02T12:27:58.621Z,4.20
2018-11-02T12:28:58.677Z,4.10
2018-11-02T12:29:58.500Z,4.00
2018-11-02T12:30:58.475Z,3.70
2018-11-02T12:31:58.432Z,3.70
2018-11-02T12:32:58.404Z,3.50
2018-11-02T12:33:58.373Z,3.80
2018-11-02T12:34:58.313Z,3.70
2018-11-02T12:35:58.283Z,3.50
2018-11-02T12:36:58.256Z,3.60
2018-11-02T12:37:58.214Z,3.70
2018-11-02T12:38:58.184Z,3.50
2018-11-02T12:39:58.116Z,3.50
2018-11-02T12:40:58.079Z,3.20
2018-11-02T12:41:58.025Z,3.40
2018-11-02T12:42:58.017Z,3.20
2018-11-02T12:43:58.017Z,3.50
2018-11-02T12:44:57.936Z,3.30
2018-11-02T12:45:57.882Z,3.40
2018-11-02T12:46:57.835Z,3.50
2018-11-02T12:47:57.905Z,3.50
2018-11-02T12:48:58.086Z,3.30
2018-11-02T12:49:57.843Z,3.50
2018-11-02T12:50:57.684Z,3.20
2018-11-02T12:51:57.643Z,3.10
2018-11-02T12:52:57.602Z,3.30
2018-11-02T12:53:57.582Z,3.30
2018-11-02T12:54:57.544Z,3.00
2018-11-02T12:55:57.518Z,2.90
2018-11-02T12:56:57.464Z,3.20
2018-11-02T12:57:57.412Z,2.90
2018-11-02T12:58:57.374Z,3.00
2018-11-02T12:59:57.339Z,3.30
2018-11-02T13:00:57.285Z,2.90
2018-11-02T13:01:57.244Z,3.00
2018-11-02T13:02:57.213Z,3.10
2018-11-02T13:03:57.170Z,2.90
2018-11-02T13:04:57.161Z,3.00
2018-11-02T13:05:57.105Z,3.00